Time;durP1;ratioP1;P1;durP2;ratioP2;P2;SDS_P1;SDS_P2;PMS_P1;PMS_P2;Temp;Humidity;BMP_temperature;BMP_pressure;BME280_temperature;BME280_humidity;BME280_pressure;Samples;Min_cycle;Max_cycle;Signal;HPM_P1;HPM_P2
2022/06/24 00:00:11;;;;;;;1.05;0.68;;;;;;;;;;4126147;28;20062;-70
2022/06/24 00:02:13;;;;;;;1.95;1.00;;;;;;;;;;4127841;28;21134;-71
2022/06/24 00:04:21;;;;;;;1.17;0.50;;;;;;;;;;4126494;28;20100;-71
2022/06/24 00:06:23;;;;;;;3.95;1.20;;;;;;;;;;4129497;28;20933;-70
2022/06/24 00:08:26;;;;;;;2.78;1.17;;;;;;;;;;4127064;28;20089;-70
2022/06/24 00:10:33;;;;;;;2.60;0.80;;;;;;;;;;4121893;28;20059;-71
2022/06/24 00:12:35;;;;;;;4.85;0.82;;;;;;;;;;4128511;28;20061;-70
2022/06/24 00:14:38;;;;;;;4.25;1.08;;;;;;;;;;4122036;28;20065;-70
2022/06/24 00:16:53;;;;;;;1.40;0.80;;;;;;;;;;4127465;28;20059;-71
2022/06/24 00:19:09;;;;;;;3.40;1.05;;;;;;;;;;4124591;28;20126;-71
2022/06/24 00:21:12;;;;;;;2.83;1.05;;;;;;;;;;4126876;28;20109;-71
2022/06/24 00:23:18;;;;;;;1.05;0.80;;;;;;;;;;4121790;28;20051;-71
2022/06/24 00:25:22;;;;;;;3.90;1.05;;;;;;;;;;4123464;28;20676;-71
2022/06/24 00:27:24;;;;;;;7.57;1.73;;;;;;;;;;4122094;28;20090;-71
2022/06/24 00:29:28;;;;;;;2.97;1.00;;;;;;;;;;4116589;28;20071;-71
2022/06/24 00:31:30;;;;;;;5.10;1.42;;;;;;;;;;4130425;28;20067;-71
2022/06/24 00:33:33;;;;;;;5.13;1.17;;;;;;;;;;4124475;28;20051;-71
2022/06/24 00:35:37;;;;;;;6.70;1.30;;;;;;;;;;4125602;28;20061;-71
2022/06/24 00:37:41;;;;;;;2.55;1.05;;;;;;;;;;4124587;28;20862;-71
2022/06/24 00:39:43;;;;;;;3.72;1.40;;;;;;;;;;4124508;28;20062;-71
2022/06/24 00:41:51;;;;;;;1.60;0.90;;;;;;;;;;4121956;28;20856;-71
2022/06/24 00:43:56;;;;;;;6.07;1.33;;;;;;;;;;4131475;28;20094;-71
2022/06/24 00:46:04;;;;;;;5.10;1.40;;;;;;;;;;4126810;28;20088;-71
2022/06/24 00:48:15;;;;;;;1.35;0.93;;;;;;;;;;4127907;28;20081;-71
2022/06/24 00:50:17;;;;;;;8.30;1.20;;;;;;;;;;4124806;28;20070;-72
2022/06/24 00:52:19;;;;;;;2.20;1.25;;;;;;;;;;4123634;28;20082;-71
2022/06/24 00:54:23;;;;;;;7.72;1.05;;;;;;;;;;4125454;28;20543;-71
2022/06/24 00:56:26;;;;;;;6.43;1.73;;;;;;;;;;4126008;28;20813;-71
2022/06/24 00:58:28;;;;;;;5.70;1.35;;;;;;;;;;4129840;28;20059;-71
2022/06/24 01:00:32;;;;;;;4.07;1.55;;;;;;;;;;4127012;28;20066;-71
2022/06/24 01:02:34;;;;;;;4.85;1.67;;;;;;;;;;4128438;28;20081;-72
2022/06/24 01:04:37;;;;;;;2.63;1.55;;;;;;;;;;4129113;28;20074;-71
2022/06/24 01:06:40;;;;;;;6.15;1.48;;;;;;;;;;4124991;28;20671;-72
2022/06/24 01:08:43;;;;;;;3.03;1.65;;;;;;;;;;4125516;28;20142;-71
2022/06/24 01:10:49;;;;;;;3.70;1.40;;;;;;;;;;4128808;28;20737;-71
2022/06/24 01:12:51;;;;;;;2.63;1.08;;;;;;;;;;4126997;28;20058;-72
2022/06/24 01:14:54;;;;;;;3.42;1.52;;;;;;;;;;4126290;28;20058;-71
2022/06/24 01:16:56;;;;;;;2.38;1.20;;;;;;;;;;4127391;28;20946;-71
2022/06/24 01:18:59;;;;;;;4.05;1.58;;;;;;;;;;4124457;28;20074;-71
2022/06/24 01:21:01;;;;;;;4.72;1.75;;;;;;;;;;4124497;28;20055;-70
2022/06/24 01:23:03;;;;;;;5.05;1.15;;;;;;;;;;4127294;28;20058;-70
2022/06/24 01:25:06;;;;;;;2.70;1.23;;;;;;;;;;4124690;28;20190;-70
2022/06/24 01:27:09;;;;;;;2.85;0.98;;;;;;;;;;4121558;28;21195;-71
2022/06/24 01:29:11;;;;;;;5.28;2.05;;;;;;;;;;4125695;28;20059;-71
2022/06/24 01:31:13;;;;;;;2.13;1.23;;;;;;;;;;4129997;28;20161;-71
2022/06/24 01:33:15;;;;;;;2.85;1.13;;;;;;;;;;4130319;28;20987;-71
2022/06/24 01:35:17;;;;;;;5.80;1.30;;;;;;;;;;4121171;28;20058;-71
2022/06/24 01:37:19;;;;;;;4.68;1.38;;;;;;;;;;4122757;28;20064;-71
2022/06/24 01:39:22;;;;;;;3.00;1.05;;;;;;;;;;4124093;28;20059;-71
2022/06/24 01:41:24;;;;;;;3.10;1.05;;;;;;;;;;4121089;28;20886;-71
2022/06/24 01:43:26;;;;;;;4.20;1.35;;;;;;;;;;4120198;28;20811;-71
2022/06/24 01:45:29;;;;;;;4.72;1.13;;;;;;;;;;4121339;28;20055;-71
2022/06/24 01:47:31;;;;;;;7.95;1.58;;;;;;;;;;4127430;28;20093;-71
2022/06/24 01:49:33;;;;;;;5.13;1.67;;;;;;;;;;4121886;28;20063;-71
2022/06/24 01:51:37;;;;;;;2.97;1.10;;;;;;;;;;4130912;28;20063;-71
2022/06/24 01:53:39;;;;;;;4.72;1.67;;;;;;;;;;4151514;22;20667;-73
2022/06/24 01:55:41;;;;;;;2.60;1.20;;;;;;;;;;4126179;28;20055;-72
2022/06/24 01:57:44;;;;;;;3.20;1.10;;;;;;;;;;4123017;28;20062;-73
2022/06/24 01:59:46;;;;;;;2.08;1.20;;;;;;;;;;4118226;28;20066;-73
2022/06/24 02:01:48;;;;;;;3.72;1.38;;;;;;;;;;4125998;28;20061;-74
2022/06/24 02:03:50;;;;;;;5.10;1.13;;;;;;;;;;4124922;28;20929;-74
2022/06/24 02:05:52;;;;;;;3.83;1.92;;;;;;;;;;4125011;28;20105;-73
2022/06/24 02:07:55;;;;;;;4.05;1.20;;;;;;;;;;4123315;28;20684;-74
2022/06/24 02:14:38;;;;;;;8.30;1.55;;;;;;;;;;4127957;28;20849;-74
2022/06/24 02:16:47;;;;;;;1.67;1.10;;;;;;;;;;4125678;28;20814;-74
2022/06/24 02:18:49;;;;;;;4.10;1.13;;;;;;;;;;4125079;28;20070;-74
2022/06/24 02:20:51;;;;;;;6.53;1.50;;;;;;;;;;4124682;28;20058;-73
2022/06/24 02:22:53;;;;;;;2.60;1.13;;;;;;;;;;4125863;28;20182;-74
2022/06/24 02:24:56;;;;;;;3.08;1.00;;;;;;;;;;4127976;28;20061;-74
2022/06/24 02:26:58;;;;;;;8.13;1.77;;;;;;;;;;4124773;28;20093;-74
2022/06/24 02:29:00;;;;;;;6.70;1.75;;;;;;;;;;4123082;28;20067;-74
2022/06/24 02:31:03;;;;;;;3.28;1.00;;;;;;;;;;4125841;28;20058;-73
2022/06/24 02:33:05;;;;;;;4.32;1.77;;;;;;;;;;4126328;28;20101;-73
2022/06/24 02:35:08;;;;;;;4.10;1.10;;;;;;;;;;4126294;28;20177;-74
2022/06/24 02:37:10;;;;;;;2.78;1.30;;;;;;;;;;4124000;28;20186;-73
2022/06/24 02:39:12;;;;;;;2.33;1.30;;;;;;;;;;4127564;28;20052;-74
2022/06/24 02:41:14;;;;;;;7.47;1.30;;;;;;;;;;4132495;28;20061;-72
2022/06/24 02:43:16;;;;;;;3.38;1.65;;;;;;;;;;4143874;28;20098;-73
2022/06/24 02:45:18;;;;;;;6.45;1.55;;;;;;;;;;4125805;28;20063;-73
2022/06/24 02:47:21;;;;;;;5.25;1.30;;;;;;;;;;4130251;28;20054;-73
2022/06/24 02:49:23;;;;;;;4.00;1.23;;;;;;;;;;4121398;28;20066;-74
2022/06/24 02:51:25;;;;;;;2.95;1.40;;;;;;;;;;4121201;28;20063;-74
2022/06/24 02:53:28;;;;;;;5.22;2.00;;;;;;;;;;4128473;28;20094;-74
2022/06/24 02:55:30;;;;;;;3.75;1.42;;;;;;;;;;4123666;28;20054;-74
2022/06/24 02:57:32;;;;;;;2.83;1.15;;;;;;;;;;4121858;28;20071;-74
2022/06/24 02:59:34;;;;;;;1.27;1.17;;;;;;;;;;4119557;28;20102;-74
2022/06/24 03:01:36;;;;;;;4.72;1.67;;;;;;;;;;4119950;28;20065;-74
2022/06/24 03:03:39;;;;;;;2.90;1.40;;;;;;;;;;4118164;28;21088;-74
2022/06/24 03:05:41;;;;;;;4.38;1.23;;;;;;;;;;4120875;28;20950;-73
2022/06/24 03:07:44;;;;;;;2.40;1.20;;;;;;;;;;4122488;28;20059;-74
2022/06/24 03:09:46;;;;;;;5.32;1.58;;;;;;;;;;4127963;28;20095;-74
2022/06/24 03:11:48;;;;;;;4.55;2.08;;;;;;;;;;4128379;28;20059;-73
2022/06/24 03:13:50;;;;;;;5.32;1.58;;;;;;;;;;4125608;28;20794;-74
2022/06/24 03:15:52;;;;;;;3.58;1.33;;;;;;;;;;4125577;28;20066;-74
2022/06/24 03:17:54;;;;;;;6.30;1.85;;;;;;;;;;4126769;28;20721;-74
2022/06/24 03:19:56;;;;;;;4.40;1.30;;;;;;;;;;4123583;28;20647;-74
2022/06/24 03:21:59;;;;;;;4.55;1.48;;;;;;;;;;4128668;28;20174;-73
2022/06/24 03:24:01;;;;;;;8.27;1.58;;;;;;;;;;4126085;28;20867;-73
2022/06/24 03:26:03;;;;;;;5.25;2.13;;;;;;;;;;4129638;28;20093;-73
2022/06/24 03:28:06;;;;;;;4.57;1.80;;;;;;;;;;4129356;28;20062;-73
2022/06/24 03:30:09;;;;;;;5.20;1.33;;;;;;;;;;4125173;28;20079;-73
2022/06/24 03:32:11;;;;;;;2.53;1.15;;;;;;;;;;4127975;28;20170;-74
2022/06/24 03:34:13;;;;;;;2.35;1.20;;;;;;;;;;4129634;28;20063;-73
2022/06/24 03:36:15;;;;;;;3.80;1.25;;;;;;;;;;4128653;28;20095;-73
2022/06/24 03:38:17;;;;;;;3.75;1.40;;;;;;;;;;4129114;28;20063;-73
2022/06/24 03:40:20;;;;;;;2.60;1.30;;;;;;;;;;4130693;28;20094;-71
2022/06/24 03:42:22;;;;;;;3.88;1.17;;;;;;;;;;4126400;28;20070;-73
2022/06/24 03:44:24;;;;;;;2.67;1.30;;;;;;;;;;4125295;28;20162;-73
2022/06/24 03:46:26;;;;;;;3.78;1.23;;;;;;;;;;4128843;28;20747;-73
2022/06/24 03:48:29;;;;;;;3.45;1.70;;;;;;;;;;4127276;28;20130;-73
2022/06/24 03:50:31;;;;;;;5.78;1.48;;;;;;;;;;4128729;28;20065;-73
2022/06/24 03:52:34;;;;;;;4.55;1.77;;;;;;;;;;4125493;28;20101;-73
2022/06/24 03:54:36;;;;;;;4.07;1.67;;;;;;;;;;4127258;28;20065;-73
2022/06/24 03:56:38;;;;;;;4.32;1.65;;;;;;;;;;4129792;28;20061;-72
2022/06/24 03:58:46;;;;;;;6.82;2.08;;;;;;;;;;4131526;28;20863;-73
2022/06/24 04:00:48;;;;;;;7.28;1.65;;;;;;;;;;4125930;28;20210;-72
2022/06/24 04:02:50;;;;;;;8.13;1.85;;;;;;;;;;4120853;28;20156;-73
2022/06/24 04:04:52;;;;;;;5.15;1.88;;;;;;;;;;4125369;28;20063;-72
2022/06/24 04:06:54;;;;;;;1.73;1.25;;;;;;;;;;4133354;28;20054;-72
2022/06/24 04:08:57;;;;;;;5.22;1.65;;;;;;;;;;4122537;28;20058;-71
2022/06/24 04:10:59;;;;;;;3.15;1.48;;;;;;;;;;4146954;28;20062;-70
2022/06/24 04:13:01;;;;;;;7.53;1.50;;;;;;;;;;4124444;28;20640;-73
2022/06/24 04:15:19;;;;;;;5.55;1.80;;;;;;;;;;4123463;28;20059;-73
2022/06/24 04:17:21;;;;;;;4.60;1.92;;;;;;;;;;4127340;28;20174;-73
2022/06/24 04:19:23;;;;;;;3.17;1.45;;;;;;;;;;4125797;28;20064;-72
2022/06/24 04:21:26;;;;;;;3.70;1.70;;;;;;;;;;4122022;28;20885;-73
2022/06/24 04:23:28;;;;;;;5.55;1.58;;;;;;;;;;4123173;28;20070;-73
2022/06/24 04:25:31;;;;;;;4.20;1.30;;;;;;;;;;4121378;28;20063;-73
2022/06/24 04:27:33;;;;;;;4.47;1.33;;;;;;;;;;4123471;28;20185;-71
2022/06/24 04:29:35;;;;;;;2.85;1.65;;;;;;;;;;4124516;28;20059;-71
2022/06/24 04:31:37;;;;;;;4.95;1.60;;;;;;;;;;4128517;28;20141;-72
2022/06/24 04:33:40;;;;;;;6.03;2.17;;;;;;;;;;4125550;28;20164;-73
2022/06/24 04:35:42;;;;;;;8.45;1.30;;;;;;;;;;4124866;28;20902;-72
2022/06/24 04:37:45;;;;;;;5.32;1.73;;;;;;;;;;4124665;28;20684;-72
2022/06/24 04:39:47;;;;;;;4.05;1.60;;;;;;;;;;4127118;28;20059;-72
2022/06/24 04:41:49;;;;;;;5.50;1.33;;;;;;;;;;4123670;28;20070;-72
2022/06/24 04:43:51;;;;;;;4.57;1.65;;;;;;;;;;4126682;28;20178;-73
2022/06/24 04:45:53;;;;;;;6.43;1.30;;;;;;;;;;4128341;28;20067;-72
2022/06/24 04:47:55;;;;;;;4.88;1.92;;;;;;;;;;4124945;28;20055;-71
2022/06/24 04:49:57;;;;;;;3.92;1.23;;;;;;;;;;4126540;28;20080;-71
2022/06/24 04:52:00;;;;;;;3.83;1.48;;;;;;;;;;4124541;28;20054;-70
2022/06/24 04:54:02;;;;;;;3.22;1.48;;;;;;;;;;4126944;28;20058;-72
2022/06/24 04:56:04;;;;;;;3.28;1.10;;;;;;;;;;4125346;28;20169;-72
2022/06/24 04:58:07;;;;;;;2.95;1.65;;;;;;;;;;4125124;28;20805;-74
2022/06/24 05:00:10;;;;;;;14.43;2.17;;;;;;;;;;4130298;28;20058;-72
2022/06/24 05:02:12;;;;;;;5.35;1.73;;;;;;;;;;4125522;28;20109;-72
2022/06/24 05:04:14;;;;;;;9.85;2.03;;;;;;;;;;4125391;28;20063;-72
2022/06/24 05:06:17;;;;;;;5.90;1.70;;;;;;;;;;4124835;28;20059;-72
2022/06/24 05:08:19;;;;;;;5.18;1.60;;;;;;;;;;4129835;28;20063;-73
2022/06/24 05:10:23;;;;;;;4.38;1.75;;;;;;;;;;4125340;28;20059;-72
2022/06/24 05:12:25;;;;;;;7.70;2.25;;;;;;;;;;4132671;28;20920;-77
2022/06/24 05:14:31;;;;;;;2.13;1.35;;;;;;;;;;4134517;28;20063;-76
2022/06/24 05:16:33;;;;;;;5.20;1.70;;;;;;;;;;4131892;28;20071;-77
2022/06/24 05:18:41;;;;;;;3.53;1.88;;;;;;;;;;4131847;28;20062;-76
2022/06/24 05:20:43;;;;;;;3.33;1.52;;;;;;;;;;4132216;28;20065;-76
2022/06/24 05:22:45;;;;;;;6.22;1.40;;;;;;;;;;4133057;28;20053;-77
2022/06/24 05:24:47;;;;;;;7.20;1.90;;;;;;;;;;4135150;28;20081;-77
2022/06/24 05:26:49;;;;;;;3.67;1.58;;;;;;;;;;4130482;28;20174;-77
2022/06/24 05:28:52;;;;;;;3.03;1.35;;;;;;;;;;4131746;28;20069;-76
2022/06/24 05:30:55;;;;;;;4.80;1.60;;;;;;;;;;4132554;28;20945;-77
2022/06/24 05:32:57;;;;;;;7.30;1.98;;;;;;;;;;4127667;28;20905;-77
2022/06/24 05:34:59;;;;;;;3.88;1.50;;;;;;;;;;4122679;28;20061;-77
2022/06/24 05:37:02;;;;;;;10.45;1.77;;;;;;;;;;4129467;28;20053;-77
2022/06/24 05:39:05;;;;;;;8.10;1.85;;;;;;;;;;4131082;28;20059;-73
2022/06/24 05:41:07;;;;;;;4.05;1.42;;;;;;;;;;4130640;28;20162;-74
2022/06/24 05:43:09;;;;;;;5.57;1.70;;;;;;;;;;4132501;28;20170;-77
2022/06/24 05:45:12;;;;;;;4.20;1.40;;;;;;;;;;4128933;28;20065;-74
2022/06/24 05:47:14;;;;;;;4.13;1.75;;;;;;;;;;4131293;28;20173;-76
2022/06/24 05:49:16;;;;;;;4.15;1.60;;;;;;;;;;4121520;28;20058;-77
2022/06/24 05:51:18;;;;;;;5.82;1.77;;;;;;;;;;4128102;28;20059;-75
2022/06/24 05:55:42;;;;;;;3.85;1.35;;;;;;;;;;4125497;28;20673;-76
2022/06/24 05:57:44;;;;;;;3.03;1.42;;;;;;;;;;4122575;28;20081;-77
2022/06/24 05:59:47;;;;;;;12.82;1.73;;;;;;;;;;4124248;28;20082;-75
2022/06/24 06:01:49;;;;;;;8.43;2.05;;;;;;;;;;4125181;28;20059;-76
2022/06/24 06:03:51;;;;;;;3.75;1.98;;;;;;;;;;4128195;28;20070;-77
2022/06/24 06:05:54;;;;;;;5.80;1.80;;;;;;;;;;4126461;28;20066;-76
2022/06/24 06:07:56;;;;;;;4.22;1.83;;;;;;;;;;4125390;28;20173;-76
2022/06/24 06:09:58;;;;;;;6.80;2.03;;;;;;;;;;4125383;28;20150;-76
2022/06/24 06:12:00;;;;;;;5.28;1.50;;;;;;;;;;4125662;28;20889;-77
2022/06/24 06:14:03;;;;;;;4.55;1.25;;;;;;;;;;4126619;28;20043;-77
2022/06/24 06:16:05;;;;;;;5.60;1.77;;;;;;;;;;4126093;28;20953;-77
2022/06/24 06:18:07;;;;;;;4.28;1.65;;;;;;;;;;4127231;28;20193;-77
2022/06/24 06:20:10;;;;;;;6.63;1.45;;;;;;;;;;4132487;28;20058;-77
2022/06/24 06:22:12;;;;;;;6.90;1.90;;;;;;;;;;4122453;28;20088;-76
2022/06/24 06:24:14;;;;;;;5.53;1.55;;;;;;;;;;4126058;28;20073;-76
2022/06/24 06:26:16;;;;;;;5.75;1.83;;;;;;;;;;4125073;28;20210;-76
2022/06/24 06:28:18;;;;;;;3.78;1.52;;;;;;;;;;4124171;28;20059;-78
2022/06/24 06:30:20;;;;;;;6.28;1.80;;;;;;;;;;4128957;28;20845;-76
2022/06/24 06:32:22;;;;;;;4.55;1.75;;;;;;;;;;4119859;28;20655;-76
2022/06/24 06:34:25;;;;;;;6.28;1.65;;;;;;;;;;4124308;28;20059;-76
2022/06/24 06:36:27;;;;;;;6.47;1.70;;;;;;;;;;4129077;28;20763;-76
2022/06/24 06:38:29;;;;;;;5.38;1.30;;;;;;;;;;4121071;28;20081;-76
2022/06/24 06:40:34;;;;;;;3.60;1.40;;;;;;;;;;4123917;28;20089;-78
2022/06/24 06:42:36;;;;;;;2.72;1.45;;;;;;;;;;4130524;28;20054;-77
2022/06/24 06:44:39;;;;;;;3.13;1.65;;;;;;;;;;4122804;28;20154;-77
2022/06/24 06:46:41;;;;;;;5.35;1.38;;;;;;;;;;4126426;28;20082;-77
2022/06/24 06:48:44;;;;;;;4.68;1.27;;;;;;;;;;4126609;28;20055;-77
2022/06/24 06:50:46;;;;;;;3.03;1.23;;;;;;;;;;4126820;28;20058;-77
2022/06/24 06:52:48;;;;;;;4.35;1.20;;;;;;;;;;4125827;28;20070;-77
2022/06/24 06:54:50;;;;;;;2.08;1.40;;;;;;;;;;4125793;28;20158;-78
2022/06/24 06:56:53;;;;;;;2.45;1.60;;;;;;;;;;4126495;28;20817;-78
2022/06/24 06:58:55;;;;;;;4.80;1.35;;;;;;;;;;4133274;28;20165;-79
2022/06/24 07:00:57;;;;;;;3.83;1.70;;;;;;;;;;4140201;28;20717;-79
2022/06/24 07:02:59;;;;;;;5.60;1.48;;;;;;;;;;4131195;28;20217;-78
2022/06/24 07:05:01;;;;;;;7.20;1.70;;;;;;;;;;4136523;28;20987;-79
2022/06/24 07:07:04;;;;;;;3.92;1.40;;;;;;;;;;4134994;28;20122;-77
2022/06/24 07:09:06;;;;;;;4.07;1.35;;;;;;;;;;4143658;28;20057;-79
2022/06/24 07:11:08;;;;;;;2.97;1.40;;;;;;;;;;4136703;28;21349;-79
2022/06/24 07:13:11;;;;;;;4.90;1.80;;;;;;;;;;4133914;28;20086;-79
2022/06/24 07:15:16;;;;;;;4.40;1.50;;;;;;;;;;4125814;28;20059;-78
2022/06/24 07:17:18;;;;;;;2.72;1.25;;;;;;;;;;4131516;28;20054;-79
2022/06/24 07:19:20;;;;;;;3.05;1.83;;;;;;;;;;4129485;28;20062;-79
2022/06/24 07:21:22;;;;;;;2.63;1.50;;;;;;;;;;4129793;28;20069;-79
2022/06/24 07:23:24;;;;;;;1.77;1.33;;;;;;;;;;4128233;28;20063;-79
2022/06/24 07:25:27;;;;;;;4.55;1.60;;;;;;;;;;4129529;28;20069;-77
2022/06/24 07:27:29;;;;;;;4.50;1.55;;;;;;;;;;4135267;28;20157;-80
2022/06/24 07:29:34;;;;;;;2.47;1.25;;;;;;;;;;4133105;28;20092;-79
2022/06/24 07:31:36;;;;;;;2.50;1.20;;;;;;;;;;4132220;28;20065;-79
2022/06/24 07:33:39;;;;;;;3.13;1.20;;;;;;;;;;4126938;28;20055;-78
2022/06/24 07:35:41;;;;;;;3.75;1.55;;;;;;;;;;4128250;28;20178;-79
2022/06/24 07:37:53;;;;;;;3.78;1.20;;;;;;;;;;4134284;28;20058;-79
2022/06/24 07:39:55;;;;;;;2.95;1.30;;;;;;;;;;4132555;28;20095;-79
2022/06/24 07:41:57;;;;;;;2.55;1.17;;;;;;;;;;4131247;28;20047;-79
2022/06/24 07:44:00;;;;;;;1.63;1.15;;;;;;;;;;4138153;28;20087;-79
2022/06/24 07:46:02;;;;;;;3.63;1.27;;;;;;;;;;4133906;28;20699;-79
2022/06/24 07:48:04;;;;;;;5.53;1.25;;;;;;;;;;4129744;28;20775;-79
2022/06/24 07:50:07;;;;;;;2.00;0.80;;;;;;;;;;4123564;28;20861;-78
2022/06/24 07:52:10;;;;;;;1.88;1.15;;;;;;;;;;4132169;28;20069;-79
2022/06/24 07:54:12;;;;;;;1.30;0.80;;;;;;;;;;4124909;28;20066;-79
2022/06/24 07:58:36;;;;;;;2.65;1.27;;;;;;;;;;4122722;28;20058;-78
2022/06/24 08:00:38;;;;;;;1.65;0.77;;;;;;;;;;4124291;28;20814;-80
2022/06/24 08:02:40;;;;;;;1.60;1.13;;;;;;;;;;4154187;22;20776;-77
2022/06/24 08:04:42;;;;;;;2.53;1.02;;;;;;;;;;4146908;28;20058;-77
2022/06/24 08:06:46;;;;;;;2.20;1.08;;;;;;;;;;4142345;28;20066;-77
2022/06/24 08:08:48;;;;;;;1.88;1.10;;;;;;;;;;4150738;28;20050;-78
2022/06/24 08:10:50;;;;;;;3.55;1.00;;;;;;;;;;4151955;28;20884;-78
2022/06/24 08:12:52;;;;;;;2.33;1.10;;;;;;;;;;4148074;28;20177;-79
2022/06/24 08:14:55;;;;;;;1.35;0.85;;;;;;;;;;4145428;28;20884;-79
2022/06/24 08:16:57;;;;;;;2.38;1.20;;;;;;;;;;4150481;28;20054;-79
2022/06/24 08:19:00;;;;;;;2.58;1.13;;;;;;;;;;4149687;28;20624;-77
2022/06/24 08:21:02;;;;;;;5.05;0.90;;;;;;;;;;4148325;28;20058;-78
2022/06/24 08:23:04;;;;;;;3.97;0.85;;;;;;;;;;4150379;28;20335;-77
2022/06/24 08:25:06;;;;;;;2.50;0.90;;;;;;;;;;4150355;28;20865;-77
2022/06/24 08:27:25;;;;;;;3.63;1.65;;;;;;;;;;4143229;28;20063;-78
2022/06/24 08:29:27;;;;;;;1.83;0.77;;;;;;;;;;4148214;28;20053;-78
2022/06/24 08:31:29;;;;;;;1.55;1.05;;;;;;;;;;4146101;28;20878;-79
2022/06/24 08:33:32;;;;;;;4.55;1.02;;;;;;;;;;4143859;28;20058;-79
2022/06/24 08:35:34;;;;;;;2.05;1.08;;;;;;;;;;4149065;28;20054;-78
2022/06/24 08:37:36;;;;;;;4.45;0.85;;;;;;;;;;4151281;28;20161;-78
2022/06/24 08:39:38;;;;;;;2.35;0.77;;;;;;;;;;4150719;28;20873;-77
2022/06/24 08:41:44;;;;;;;2.00;1.00;;;;;;;;;;4138755;28;20063;-77
2022/06/24 08:43:48;;;;;;;2.15;0.90;;;;;;;;;;4148159;28;20058;-78
2022/06/24 08:45:50;;;;;;;2.88;0.68;;;;;;;;;;4142680;28;20120;-79
2022/06/24 08:47:53;;;;;;;2.78;0.95;;;;;;;;;;4147613;28;20058;-78
2022/06/24 08:49:55;;;;;;;1.27;0.80;;;;;;;;;;4144580;28;20054;-78
2022/06/24 08:51:59;;;;;;;3.67;1.00;;;;;;;;;;4145593;28;20943;-78
2022/06/24 08:54:02;;;;;;;1.23;0.80;;;;;;;;;;4140388;28;20058;-78
2022/06/24 08:56:24;;;;;;;2.10;1.00;;;;;;;;;;4141301;28;20051;-79
2022/06/24 08:58:26;;;;;;;3.90;0.98;;;;;;;;;;4158111;28;20039;-79
2022/06/24 09:00:28;;;;;;;1.42;0.70;;;;;;;;;;4154360;28;20053;-79
2022/06/24 09:02:30;;;;;;;2.08;0.90;;;;;;;;;;4152901;28;20186;-80
2022/06/24 09:04:33;;;;;;;1.10;0.68;;;;;;;;;;4166334;28;20054;-79
2022/06/24 09:06:39;;;;;;;9.40;0.98;;;;;;;;;;4142347;28;20061;-79
2022/06/24 09:08:47;;;;;;;0.85;0.60;;;;;;;;;;4147451;28;20917;-79
2022/06/24 09:11:07;;;;;;;2.42;0.80;;;;;;;;;;4148341;28;20058;-80
2022/06/24 09:13:22;;;;;;;1.33;0.70;;;;;;;;;;4142289;28;20062;-79
2022/06/24 09:15:24;;;;;;;2.78;1.00;;;;;;;;;;4138151;28;20065;-79
2022/06/24 09:17:30;;;;;;;1.30;0.70;;;;;;;;;;4139776;28;20157;-79
2022/06/24 09:19:33;;;;;;;2.67;1.05;;;;;;;;;;4138561;28;20074;-78
2022/06/24 09:21:39;;;;;;;3.40;1.30;;;;;;;;;;4148448;28;20153;-79
2022/06/24 09:23:52;;;;;;;2.13;1.13;;;;;;;;;;4148607;28;20880;-79
2022/06/24 09:26:00;;;;;;;1.63;0.82;;;;;;;;;;4148873;28;20100;-78
2022/06/24 09:28:03;;;;;;;0.80;0.70;;;;;;;;;;4146871;28;20133;-79
2022/06/24 09:30:05;;;;;;;1.95;0.70;;;;;;;;;;4150858;28;20381;-79
2022/06/24 09:32:09;;;;;;;2.22;0.80;;;;;;;;;;4142305;28;20808;-79
2022/06/24 09:34:12;;;;;;;1.45;0.93;;;;;;;;;;4143016;28;20062;-78
2022/06/24 09:36:14;;;;;;;1.27;0.60;;;;;;;;;;4144972;28;20063;-78
2022/06/24 09:38:16;;;;;;;1.38;1.20;;;;;;;;;;4149445;28;21071;-78
2022/06/24 09:40:23;;;;;;;1.17;0.80;;;;;;;;;;4142211;28;20097;-78
2022/06/24 09:42:25;;;;;;;0.70;0.60;;;;;;;;;;4142727;28;20062;-77
2022/06/24 09:44:43;;;;;;;4.70;0.88;;;;;;;;;;4137979;28;20080;-78
2022/06/24 09:46:46;;;;;;;1.67;0.77;;;;;;;;;;4145621;28;20054;-78
2022/06/24 09:48:51;;;;;;;5.35;1.23;;;;;;;;;;4144233;28;20136;-78
2022/06/24 09:50:55;;;;;;;3.05;0.75;;;;;;;;;;4145375;28;20061;-77
2022/06/24 09:52:57;;;;;;;1.10;0.60;;;;;;;;;;4147254;28;20667;-77
2022/06/24 09:55:01;;;;;;;4.18;1.20;;;;;;;;;;4146110;28;20069;-76
2022/06/24 09:57:03;;;;;;;4.45;1.20;;;;;;;;;;4143818;28;20957;-77
2022/06/24 10:01:26;;;;;;;2.20;0.90;;;;;;;;;;4140927;28;20097;-77
2022/06/24 10:03:28;;;;;;;0.90;0.73;;;;;;;;;;4138020;28;20093;-77
2022/06/24 10:05:35;;;;;;;0.93;0.70;;;;;;;;;;4142941;28;20082;-79
2022/06/24 10:07:38;;;;;;;5.15;1.20;;;;;;;;;;4142806;28;20683;-77
2022/06/24 10:09:40;;;;;;;1.77;0.68;;;;;;;;;;4145293;28;20065;-77
2022/06/24 10:11:43;;;;;;;2.97;0.88;;;;;;;;;;4151460;28;20068;-77
2022/06/24 10:13:46;;;;;;;2.78;0.65;;;;;;;;;;4139928;28;20157;-78
2022/06/24 10:15:48;;;;;;;0.90;0.50;;;;;;;;;;4141752;28;20059;-77
2022/06/24 10:17:51;;;;;;;1.55;0.70;;;;;;;;;;4143373;28;20066;-78
2022/06/24 10:19:54;;;;;;;2.83;0.73;;;;;;;;;;4157142;28;20078;-77
2022/06/24 10:21:56;;;;;;;2.38;0.70;;;;;;;;;;4156379;28;20082;-77
2022/06/24 10:23:58;;;;;;;1.50;0.88;;;;;;;;;;4150912;28;20820;-77
2022/06/24 10:26:08;;;;;;;4.28;1.23;;;;;;;;;;4141578;28;20093;-77
2022/06/24 10:28:10;;;;;;;5.70;0.73;;;;;;;;;;4139556;28;20068;-77
2022/06/24 10:30:12;;;;;;;3.65;0.80;;;;;;;;;;4145805;28;20058;-77
2022/06/24 10:32:14;;;;;;;1.52;0.68;;;;;;;;;;4142264;28;20066;-77
2022/06/24 10:34:23;;;;;;;1.05;0.60;;;;;;;;;;4146137;28;20070;-76
2022/06/24 10:36:31;;;;;;;2.25;0.73;;;;;;;;;;4145355;28;20165;-77
2022/06/24 10:38:35;;;;;;;2.58;0.80;;;;;;;;;;4144268;28;20062;-77
2022/06/24 10:40:38;;;;;;;1.45;0.52;;;;;;;;;;4146907;28;20062;-77
2022/06/24 10:43:00;;;;;;;1.77;0.75;;;;;;;;;;4140168;28;20181;-78
2022/06/24 10:45:03;;;;;;;1.73;0.77;;;;;;;;;;4155853;28;20168;-78
2022/06/24 10:47:05;;;;;;;1.20;0.70;;;;;;;;;;4139520;28;20105;-77
2022/06/24 10:49:08;;;;;;;1.98;0.60;;;;;;;;;;4138037;28;20059;-77
2022/06/24 10:51:13;;;;;;;1.55;0.88;;;;;;;;;;4144614;28;20054;-77
2022/06/24 10:53:16;;;;;;;2.15;0.75;;;;;;;;;;4139153;28;20054;-77
2022/06/24 10:55:20;;;;;;;3.90;1.48;;;;;;;;;;4145522;28;20153;-77
2022/06/24 10:57:22;;;;;;;4.28;0.93;;;;;;;;;;4144979;28;20157;-78
2022/06/24 10:59:24;;;;;;;0.70;0.57;;;;;;;;;;4158286;28;20121;-79
2022/06/24 11:01:26;;;;;;;3.80;1.05;;;;;;;;;;4152603;28;20049;-78
2022/06/24 11:03:30;;;;;;;5.60;1.67;;;;;;;;;;4148571;28;20801;-79
2022/06/24 11:05:36;;;;;;;4.25;1.20;;;;;;;;;;4144842;28;20062;-78
2022/06/24 11:07:45;;;;;;;2.38;1.33;;;;;;;;;;4142083;28;20055;-76
2022/06/24 11:09:47;;;;;;;2.70;1.27;;;;;;;;;;4139585;28;20844;-78
2022/06/24 11:11:49;;;;;;;3.22;1.50;;;;;;;;;;4141054;28;20062;-79
2022/06/24 11:13:59;;;;;;;2.63;1.15;;;;;;;;;;4141752;28;20157;-77
2022/06/24 11:16:01;;;;;;;1.92;1.27;;;;;;;;;;4136002;28;21005;-77
2022/06/24 11:18:06;;;;;;;1.55;1.10;;;;;;;;;;4142381;28;20068;-78
2022/06/24 11:20:12;;;;;;;2.88;1.35;;;;;;;;;;4141995;28;20062;-77
2022/06/24 11:22:14;;;;;;;2.58;1.23;;;;;;;;;;4141656;28;20108;-77
2022/06/24 11:24:19;;;;;;;7.32;1.48;;;;;;;;;;4138364;28;21156;-77
2022/06/24 11:26:21;;;;;;;2.50;1.02;;;;;;;;;;4141846;28;20062;-78
2022/06/24 11:28:25;;;;;;;2.05;1.00;;;;;;;;;;4146368;28;20050;-77
2022/06/24 11:30:27;;;;;;;6.85;1.85;;;;;;;;;;4149507;28;20058;-78
2022/06/24 11:32:29;;;;;;;3.90;1.40;;;;;;;;;;4150745;28;20070;-77
2022/06/24 11:34:36;;;;;;;1.58;1.30;;;;;;;;;;4160854;28;20081;-78
2022/06/24 11:36:41;;;;;;;3.55;1.13;;;;;;;;;;4159177;28;20065;-78
2022/06/24 11:38:49;;;;;;;2.90;1.40;;;;;;;;;;4149700;28;20161;-78
2022/06/24 11:40:52;;;;;;;3.10;1.05;;;;;;;;;;4150862;28;20061;-79
2022/06/24 11:42:55;;;;;;;1.60;1.35;;;;;;;;;;4148106;28;20067;-77
2022/06/24 11:44:57;;;;;;;5.38;1.33;;;;;;;;;;4143551;28;20177;-77
2022/06/24 11:46:59;;;;;;;2.22;1.55;;;;;;;;;;4147224;28;20065;-77
2022/06/24 11:49:06;;;;;;;3.05;1.10;;;;;;;;;;4147109;28;20166;-77
2022/06/24 11:51:17;;;;;;;2.03;1.30;;;;;;;;;;4148409;28;20042;-77
2022/06/24 11:53:23;;;;;;;2.55;1.23;;;;;;;;;;4146926;28;20113;-78
2022/06/24 11:55:36;;;;;;;1.90;1.00;;;;;;;;;;4144008;28;20057;-77
2022/06/24 11:57:38;;;;;;;4.68;1.45;;;;;;;;;;4146247;28;20058;-76
2022/06/24 11:59:41;;;;;;;3.92;1.20;;;;;;;;;;4152991;28;20051;-78
2022/06/24 12:01:44;;;;;;;1.38;0.88;;;;;;;;;;4149883;28;20088;-77
2022/06/24 12:03:47;;;;;;;5.13;1.10;;;;;;;;;;4162008;28;20058;-76
2022/06/24 12:05:49;;;;;;;1.35;1.00;;;;;;;;;;4142706;28;20177;-77
2022/06/24 12:07:51;;;;;;;1.63;0.90;;;;;;;;;;4140382;28;20065;-77
2022/06/24 12:09:54;;;;;;;3.33;0.82;;;;;;;;;;4147350;28;20113;-77
2022/06/24 12:12:07;;;;;;;3.22;1.05;;;;;;;;;;4149658;28;20093;-77
2022/06/24 12:14:18;;;;;;;1.40;0.90;;;;;;;;;;4163067;28;20096;-78
2022/06/24 12:16:20;;;;;;;;;;;;;;;;;;4146180;28;20066;-78
2022/06/24 12:18:25;;;;;;;7.45;1.30;;;;;;;;;;4140675;28;43140;-78
2022/06/24 12:20:30;;;;;;;2.70;1.02;;;;;;;;;;4143464;28;20062;-78
2022/06/24 12:22:33;;;;;;;2.08;1.05;;;;;;;;;;4141493;28;20063;-78
2022/06/24 12:24:36;;;;;;;2.30;0.80;;;;;;;;;;4146140;28;20782;-79
2022/06/24 12:26:44;;;;;;;2.08;1.33;;;;;;;;;;4145746;28;20657;-79
2022/06/24 12:28:57;;;;;;;0.73;0.70;;;;;;;;;;4145319;28;20077;-78
2022/06/24 12:31:04;;;;;;;3.03;0.90;;;;;;;;;;4160958;28;20905;-79